Latest Weather Observations for Low Rocky Point

IDT60801

Issued at 3:05 pm EDT Thursday 27 November 2014 (issued every 30 minutes, with the page automatically refreshed every 10 minutes)

About weather observations | Map of weather stations | Latest weather observations for TAS | Other Formats
Station Details ID: 097080 Name: LOW ROCKY POINT Lat: -42.98 Lon: 145.50 Height: 34.0 m
Data from the previous 72 hours. | See also: Recent months at Low Rocky Point
Date/Time
EDT
Temp
°C
App
Temp
°C
Dew
Point
Rel
Hum
%
Delta-T
°C
Wind Press
QNH
hPa
Press
MSL
hPa
Rain
since 9 am
mm
Dir
 
Spd
km/h
Gust
km/h
Spd
kts
Gust
kts
27/03:00pm 15.1 11.5 6.9 58 4.0 WSW 15 20 8 11 1026.5 1026.5 0.0
27/02:30pm 14.8 11.2 6.9 59 3.8 WSW 15 20 8 11 1026.5 1026.5 0.0
27/02:00pm 14.7 11.0 6.3 57 4.0 WSW 15 24 8 13 1026.6 1026.6 0.0
27/01:30pm 14.1 10.1 6.5 60 3.7 SW 17 24 9 13 1026.7 1026.7 0.0
27/01:00pm 12.1 8.0 6.4 68 2.7 WSW 17 26 9 14 1026.6 1026.6 0.0
27/12:30pm 13.5 9.4 6.4 62 3.4 WSW 17 26 9 14 1026.4 1026.4 0.0
27/12:00pm 13.2 9.0 5.9 61 3.4 WSW 17 26 9 14 1026.5 1026.5 0.0
27/11:30am 13.5 8.8 5.9 60 3.6 W 20 24 11 13 1026.5 1026.5 0.0
27/11:00am 12.4 7.3 5.8 64 3.1 W 22 30 12 16 1026.4 1026.4 0.0
27/10:30am 12.1 6.4 5.0 62 3.3 W 24 33 13 18 1026.4 1026.4 0.0
27/10:00am 12.3 6.6 5.0 61 3.3 W 24 30 13 16 1026.3 1026.3 0.0
27/09:30am 11.9 7.1 5.8 66 2.8 WSW 20 26 11 14 1026.4 1026.4 0.0
27/09:00am 10.8 5.3 6.0 72 2.2 W 24 33 13 18 1026.3 1026.3 0.4
27/08:30am 11.1 5.2 6.0 71 2.4 W 26 37 14 20 1026.0 1026.0 0.4
27/08:00am 11.4 6.7 6.1 70 2.5 W 20 30 11 16 1025.5 1025.5 0.4
27/07:30am 11.0 5.5 6.0 71 2.3 WSW 24 28 13 15 1025.2 1025.2 0.4
27/07:00am 11.1 5.5 5.4 68 2.6 W 24 35 13 19 1025.0 1025.0 0.4
27/06:30am 11.1 4.7 5.2 67 2.7 W 28 32 15 17 1024.6 1024.6 0.4
27/06:00am 10.8 6.2 3.8 62 3.1 SW 17 24 9 13 1024.3 1024.3 0.4
27/05:30am 10.6 5.6 4.5 66 2.7 WSW 20 30 11 16 1024.0 1024.0 0.4
27/05:00am 10.8 5.7 5.8 71 2.3 WSW 22 30 12 16 1023.9 1023.9 0.4
27/04:30am 10.7 5.9 4.4 65 2.8 WSW 19 30 10 16 1023.5 1023.5 0.4
27/04:00am 10.6 5.1 4.1 64 2.9 SW 22 32 12 17 1023.3 1023.3 0.4
27/03:30am 10.4 5.2 5.6 72 2.2 SW 22 33 12 18 1023.3 1023.3 0.4
27/03:00am 10.7 4.8 5.9 72 2.2 SW 26 33 14 18 1023.3 1023.3 0.4
27/02:30am 10.4 5.6 5.6 72 2.2 WSW 20 32 11 17 1023.3 1023.3 0.4
27/02:00am 10.5 6.0 5.9 73 2.1 WSW 19 26 10 14 1023.3 1023.3 0.4
27/01:30am 10.4 6.4 5.0 69 2.4 SW 15 20 8 11 1023.5 1023.5 0.4
27/01:00am 10.5 5.7 4.9 68 2.5 WSW 19 26 10 14 1023.6 1023.6 0.4
27/12:30am 10.4 5.6 4.5 67 2.6 SW 19 30 10 16 1023.9 1023.9 0.4
27/12:00am 10.7 5.0 5.0 68 2.6 SW 24 35 13 19 1023.6 1023.6 0.4
 
Date/Time
EDT
Temp
°C
App
Temp
°C
Dew
Point
Rel
Hum
%
Delta-T
°C
Wind Press
QNH
hPa
Press
MSL
hPa
Rain
since 9 am
mm
Dir
 
Spd
km/h
Gust
km/h
Spd
kts
Gust
kts
26/11:30pm 10.8 6.1 6.2 73 2.1 SW 20 30 11 16 1023.6 1023.6 0.4
26/11:00pm 10.7 6.3 4.6 66 2.7 WSW 17 26 9 14 1023.5 1023.5 0.4
26/10:30pm 10.8 5.1 4.7 66 2.8 SW 24 33 13 18 1023.5 1023.5 0.4
26/10:00pm 10.8 5.6 5.3 69 2.5 SW 22 32 12 17 1023.4 1023.4 0.4
26/09:30pm 10.8 6.2 6.7 76 1.9 WSW 20 28 11 15 1023.1 1023.1 0.4
26/09:00pm 11.0 6.6 6.6 74 2.1 WSW 19 26 10 14 1022.7 1022.7 0.4
26/08:30pm 10.9 5.5 6.5 74 2.1 WSW 24 33 13 18 1022.5 1022.5 0.4
26/08:00pm 11.2 6.3 6.9 75 2.0 WSW 22 30 12 16 1022.2 1022.2 0.4
26/07:30pm 11.4 6.1 6.9 74 2.1 WSW 24 32 13 17 1021.9 1021.9 0.4
26/07:00pm 11.4 5.9 5.9 69 2.6 WSW 24 35 13 19 1021.5 1021.5 0.4
26/06:30pm 12.2 6.5 6.9 70 2.5 WSW 26 33 14 18 1021.0 1021.0 0.4
26/06:00pm 11.7 5.6 6.8 72 2.3 W 28 35 15 19 1020.8 1020.8 0.4
26/05:30pm 12.7 7.4 7.0 68 2.7 WSW 24 33 13 18 1020.7 1020.7 0.4
26/05:00pm 12.3 6.6 6.6 68 2.7 WSW 26 35 14 19 1020.5 1020.5 0.4
26/04:30pm 13.2 8.1 7.6 69 2.7 WSW 24 33 13 18 1020.4 1020.4 0.4
26/04:00pm 13.4 8.6 7.4 67 2.9 WSW 22 33 12 18 1020.1 1020.1 0.4
26/03:30pm 14.3 9.3 8.0 66 3.1 WSW 24 33 13 18 1019.8 1019.8 0.4
26/03:00pm 13.6 8.0 7.2 65 3.1 WSW 26 35 14 19 1019.7 1019.7 0.4
26/02:30pm 13.5 8.8 7.7 68 2.9 WSW 22 30 12 16 1019.6 1019.6 0.4
26/02:00pm 13.1 8.0 7.8 70 2.6 WSW 24 32 13 17 1019.3 1019.3 0.4
26/01:30pm 13.8 8.5 8.6 71 2.6 WSW 26 35 14 19 1019.1 1019.1 0.4
26/01:00pm 13.0 7.5 7.5 69 2.7 WSW 26 35 14 19 1018.8 1018.8 0.4
26/12:30pm 13.1 7.7 8.0 71 2.5 WSW 26 35 14 19 1018.6 1018.6 0.0
26/12:00pm 13.4 8.1 8.3 71 2.5 WSW 26 37 14 20 1018.2 1018.2 0.0
26/11:30am 12.5 5.9 7.8 73 2.3 WSW 32 43 17 23 1017.9 1017.9 0.0
26/11:00am 12.1 5.7 8.6 79 1.7 WSW 32 43 17 23 1017.7 1017.7 0.0
26/10:30am 11.5 5.1 8.4 81 1.5 W 32 44 17 24 1017.4 1017.4 0.0
26/10:00am 10.3 3.0 7.2 81 1.5 WSW 35 52 19 28 1017.1 1017.1 0.0
26/09:55am 11.9 5.3 8.6 80 1.6 W 33 52 18 28 1017.0 1017.0 0.0
26/09:30am 10.8 4.7 8.2 84 1.3 WSW 30 39 16 21 1016.8 1016.8 0.0
26/09:00am 11.1 3.9 9.0 87 1.0 W 37 48 20 26 1016.4 1016.3 5.2
26/08:39am 9.7 2.5 7.6 87 1.0 W 35 54 19 29 1016.3 1016.3 5.2
26/08:30am 10.6 3.2 8.2 85 1.2 W 37 54 20 29 1016.1 1016.1 5.0
26/08:00am 9.7 1.6 7.1 84 1.2 WSW 39 52 21 28 1015.7 1015.6 4.8
26/07:54am 10.2 2.2 7.3 82 1.4 WSW 39 57 21 31 1015.4 1015.5 4.8
26/07:30am 10.8 2.9 7.9 82 1.4 W 39 48 21 26 1015.0 1015.0 4.8
26/07:00am 10.0 2.0 7.6 85 1.1 W 39 46 21 25 1014.6 1014.6 4.8
26/06:30am 10.2 2.7 8.0 86 1.1 W 37 46 20 25 1014.2 1014.2 4.8
26/06:00am 9.6 2.8 7.9 89 0.8 W 33 41 18 22 1013.9 1013.9 4.8
26/05:30am 10.5 3.5 8.3 86 1.1 W 35 46 19 25 1013.3 1013.3 3.4
26/05:00am 9.4 3.4 7.0 85 1.1 W 28 30 15 16 1013.1 1013.1 3.4
26/04:37am 10.5 3.5 6.8 78 1.7 W 33 54 18 29 1012.8 1012.8 3.2
26/04:30am 10.7 3.9 7.0 78 1.8 WNW 32 39 17 21 1012.6 1012.6 3.2
26/04:00am 11.0 4.1 7.1 77 1.9 W 33 41 18 22 1012.5 1012.5 3.2
26/03:30am 11.0 3.1 8.0 82 1.5 W 39 46 21 25 1012.2 1012.2 3.2
26/03:00am 10.8 2.4 8.9 88 0.9 W 43 50 23 27 1012.1 1012.1 3.2
26/02:30am 10.5 3.0 9.3 92 0.6 W 39 46 21 25 1012.1 1012.1 3.2
26/02:00am 11.2 3.9 10.1 93 0.6 W 39 50 21 27 1011.8 1011.8 3.2
26/01:30am 10.9 2.7 10.4 97 0.3 W 44 54 24 29 1011.7 1011.7 3.2
26/01:00am 10.9 2.9 10.6 98 0.2 W 43 50 23 27 1011.6 1011.6 3.2
26/12:30am 11.3 4.1 10.7 96 0.3 W 39 48 21 26 1011.4 1011.4 2.8
26/12:00am 12.2 2.8 11.6 96 0.3 NW 52 65 28 35 1011.0 1011.0 1.6
 
Date/Time
EDT
Temp
°C
App
Temp
°C
Dew
Point
Rel
Hum
%
Delta-T
°C
Wind Press
QNH
hPa
Press
MSL
hPa
Rain
since 9 am
mm
Dir
 
Spd
km/h
Gust
km/h
Spd
kts
Gust
kts
25/11:30pm 11.9 1.5 11.3 96 0.3 NW 57 72 31 39 1011.2 1011.2 1.6
25/11:00pm 11.7 1.4 10.9 95 0.4 NW 56 69 30 37 1011.5 1011.5 1.6
25/10:44pm 11.7 2.5 10.9 95 0.4 NW 50 69 27 37 1011.7 1011.7 1.6
25/10:30pm 11.6 2.0 10.7 94 0.5 NW 52 65 28 35 1011.8 1011.8 1.6
25/10:00pm 11.4 2.0 10.1 92 0.7 WNW 50 61 27 33 1012.1 1012.1 1.6
25/09:30pm 11.5 2.2 9.2 86 1.2 WNW 48 59 26 32 1012.2 1012.2 1.0
25/09:00pm 11.7 3.2 9.3 85 1.2 NW 44 57 24 31 1012.2 1012.2 1.0
25/08:30pm 11.7 2.2 8.4 80 1.6 NW 48 59 26 32 1012.4 1012.4 1.0
25/08:00pm 11.8 2.2 8.1 78 1.8 WNW 48 59 26 32 1012.4 1012.4 1.0
25/07:30pm 11.9 2.7 8.2 78 1.8 WNW 46 63 25 34 1012.2 1012.2 1.0
25/07:26pm 11.6 3.3 7.9 78 1.8 WNW 41 59 22 32 1012.2 1012.2 1.0
25/07:00pm 11.7 2.5 7.8 77 1.9 NW 46 57 25 31 1012.3 1012.3 1.0
25/06:30pm 11.8 2.4 7.3 74 2.2 WNW 46 57 25 31 1012.2 1012.2 1.0
25/06:00pm 12.0 2.6 7.3 73 2.3 WNW 46 56 25 30 1012.2 1012.2 1.0
25/05:30pm 12.7 2.9 7.2 69 2.7 WNW 48 56 26 30 1012.2 1012.2 1.0
25/05:00pm 13.3 4.5 8.0 70 2.6 WNW 44 56 24 30 1012.0 1012.0 1.0
25/04:30pm 13.3 3.3 8.0 70 2.6 WNW 50 57 27 31 1011.8 1011.8 1.0
25/04:03pm 11.5 2.3 7.8 78 1.8 WNW 46 65 25 35 1011.8 1011.8 1.0
25/04:00pm 11.4 1.4 7.7 78 1.8 W 50 65 27 35 1011.9 1011.9 1.0
25/03:30pm 13.2 4.4 8.1 71 2.5 WNW 44 56 24 30 1011.6 1011.6 1.0
25/03:00pm 12.5 2.5 7.8 73 2.3 WNW 50 61 27 33 1011.4 1011.4 1.0
25/02:30pm 12.4 3.6 9.6 83 1.4 W 46 56 25 30 1011.2 1011.2 1.0
25/02:00pm 12.0 3.6 9.0 82 1.5 W 43 52 23 28 1010.9 1010.9 1.0
25/01:30pm 11.7 3.0 9.8 88 1.0 W 46 57 25 31 1010.7 1010.7 1.0
25/01:09pm 11.6 3.8 9.7 88 1.0 W 41 61 22 33 1010.7 1010.7 1.0
25/01:00pm 11.7 3.6 9.9 89 0.9 W 43 54 23 29 1010.6 1010.6 1.0
25/12:30pm 11.8 4.4 10.0 89 0.9 W 39 46 21 25 1010.4 1010.4 1.0
25/12:07pm 11.6 3.5 8.6 82 1.5 W 41 59 22 32 1010.3 1010.3 0.4
25/12:00pm 12.0 4.3 8.7 80 1.6 W 39 46 21 25 1010.4 1010.4 0.4
25/11:30am 11.9 5.2 9.5 85 1.2 W 35 43 19 23 1010.3 1010.3 0.4
25/11:00am 11.6 3.4 8.3 80 1.6 W 41 52 22 28 1010.2 1010.2 0.0
25/10:30am 13.3 5.6 8.8 74 2.3 WNW 39 46 21 25 1009.8 1009.8 0.0
25/10:00am 12.4 4.5 9.2 81 1.6 W 41 48 22 26 1009.8 1009.8 0.0
25/09:30am 10.7 2.9 8.1 84 1.3 W 39 50 21 27 1009.7 1009.7 0.0
25/09:00am 11.6 4.6 8.3 80 1.6 W 35 41 19 22 1009.3 1009.3 10.2
25/08:30am 11.8 4.7 6.5 70 2.5 W 33 43 18 23 1008.7 1008.7 10.2
25/08:00am 12.0 4.0 7.3 73 2.3 W 39 50 21 27 1008.4 1008.4 10.2
25/07:30am 10.9 2.8 7.0 77 1.9 W 39 57 21 31 1007.9 1007.9 10.2
25/07:28am 11.6 4.0 7.5 76 2.0 W 37 57 20 31 1007.8 1007.8 10.2
25/07:00am 11.5 3.0 6.8 73 2.2 W 41 50 22 27 1007.5 1007.5 10.2
25/06:30am 11.5 2.7 7.4 76 2.0 W 43 56 23 30 1006.8 1006.8 10.2
25/06:00am 11.5 2.2 7.6 77 1.9 W 46 57 25 31 1006.2 1006.2 10.2
25/05:30am 11.2 2.7 8.6 84 1.3 W 43 52 23 28 1005.5 1005.5 10.2
25/05:00am 11.3 1.3 9.4 88 1.0 W 52 69 28 37 1005.0 1005.0 10.2
25/04:56am 11.2 1.6 9.5 89 0.9 W 50 69 27 37 1004.9 1004.9 10.2
25/04:30am 11.3 2.6 9.9 91 0.7 W 46 63 25 34 1004.6 1004.6 10.2
25/04:09am 11.2 2.8 9.5 89 0.9 W 44 69 24 37 1004.4 1004.4 9.8
25/04:00am 11.0 2.0 8.9 87 1.0 W 46 59 25 32 1004.3 1004.3 9.8
25/03:30am 11.6 2.0 9.3 86 1.2 W 50 63 27 34 1004.0 1004.0 9.8
25/03:00am 11.5 0.6 8.9 84 1.3 W 56 76 30 41 1004.0 1004.0 9.8
25/02:58am 11.6 1.1 9.0 84 1.3 W 54 76 29 41 1004.0 1004.0 9.8
25/02:30am 12.0 2.4 9.4 84 1.3 WNW 50 61 27 33 1003.9 1003.9 9.8
25/02:00am 11.8 2.6 9.4 85 1.2 WNW 48 57 26 31 1003.7 1003.7 9.8
25/01:30am 11.7 1.4 9.6 87 1.1 WNW 54 67 29 36 1003.6 1003.6 9.8
25/01:16am 11.3 2.8 9.4 88 1.0 WNW 44 63 24 34 1003.8 1003.8 9.8
25/01:00am 11.9 1.2 9.6 86 1.2 WNW 56 69 30 37 1003.5 1003.5 9.8
25/12:30am 11.9 2.0 9.6 86 1.2 WNW 52 63 28 34 1003.5 1003.5 9.8
25/12:00am 11.7 0.8 9.6 87 1.1 WNW 57 69 31 37 1003.4 1003.4 9.8
 
Date/Time
EDT
Temp
°C
App
Temp
°C
Dew
Point
Rel
Hum
%
Delta-T
°C
Wind Press
QNH
hPa
Press
MSL
hPa
Rain
since 9 am
mm
Dir
 
Spd
km/h
Gust
km/h
Spd
kts
Gust
kts
24/11:30pm 11.4 1.9 9.7 89 0.9 NW 50 67 27 36 1003.3 1003.3 9.8
24/11:27pm 11.3 2.5 9.7 90 0.8 NW 46 67 25 36 1003.3 1003.3 9.8
24/11:00pm 11.6 3.4 9.7 88 1.0 NW 43 61 23 33 1003.4 1003.4 9.4
24/10:30pm 10.3 -0.2 7.5 83 1.3 NW 52 74 28 40 1003.7 1003.7 9.0
24/10:26pm 11.2 2.0 8.2 82 1.5 NW 46 74 25 40 1003.7 1003.7 9.0
24/10:00pm 12.0 3.5 9.2 83 1.4 NW 44 56 24 30 1003.8 1003.8 8.6
24/09:30pm 12.4 4.5 9.2 81 1.6 WNW 41 50 22 27 1003.7 1003.7 8.6
24/09:00pm 11.8 3.1 8.6 81 1.6 WNW 44 56 24 30 1003.8 1003.8 8.6
24/08:30pm 12.4 4.5 9.4 82 1.5 NW 41 52 22 28 1003.5 1003.5 8.6
24/08:00pm 12.4 4.5 9.2 81 1.6 NW 41 50 22 27 1003.4 1003.4 8.6
24/07:30pm 12.6 5.2 9.8 83 1.4 NW 39 46 21 25 1003.4 1003.4 8.6
24/07:00pm 12.9 6.3 11.3 90 0.8 NW 37 50 20 27 1003.2 1003.2 8.6
24/06:30pm 12.6 5.6 11.3 92 0.7 NW 39 48 21 26 1003.1 1003.1 8.6
24/06:00pm 12.9 6.1 12.1 95 0.4 NW 39 46 21 25 1003.3 1003.3 8.6
24/05:30pm 12.0 6.2 11.4 96 0.3 NW 33 43 18 23 1003.2 1003.2 8.6
24/05:00pm 11.4 5.4 10.9 97 0.3 NW 33 43 18 23 1003.4 1003.4 8.6
24/04:30pm 11.4 5.5 11.1 98 0.2 NW 33 43 18 23 1003.5 1003.5 8.6
24/04:00pm 11.0 5.5 10.7 98 0.2 NW 30 37 16 20 1003.6 1003.6 8.6
24/03:30pm 10.6 4.1 10.3 98 0.2 WNW 35 44 19 24 1003.7 1003.7 7.8

Other Formats:

Comma delimited format used in spreadsheet applications
http://www.bom.gov.au/fwo/IDT60801/IDT60801.95961.axf

JavaScript Object Notation format (JSON) in row-major order
http://www.bom.gov.au/fwo/IDT60801/IDT60801.95961.json